Time;durP1;ratioP1;P1;durP2;ratioP2;P2;SDS_P1;SDS_P2;PMS_P1;PMS_P2;Temp;Humidity;BMP_temperature;BMP_pressure;BME280_temperature;BME280_humidity;BME280_pressure;Samples;Min_cycle;Max_cycle;Signal;HPM_P1;HPM_P2
2022/01/19 00:01:27;;;;;;;31.45;17.25;;;5.70;96.80;;;;;;4980871;28;20058;-58
2022/01/19 00:03:54;;;;;;;33.60;17.67;;;5.70;96.90;;;;;;4980600;28;20516;-59
2022/01/19 00:06:21;;;;;;;35.80;18.42;;;5.70;97.10;;;;;;4981120;28;20054;-59
2022/01/19 00:08:49;;;;;;;32.10;17.17;;;5.70;97.20;;;;;;4980424;28;20050;-59
2022/01/19 00:11:16;;;;;;;33.38;18.73;;;5.60;97.30;;;;;;4980093;28;20096;-59
2022/01/19 00:13:44;;;;;;;32.72;16.88;;;5.60;97.30;;;;;;4980046;28;20058;-59
2022/01/19 00:16:11;;;;;;;34.83;17.55;;;5.60;97.20;;;;;;4980177;28;20054;-58
2022/01/19 00:18:38;;;;;;;37.35;18.83;;;5.70;97.20;;;;;;4980097;28;20121;-59
2022/01/19 00:21:05;;;;;;;34.28;17.77;;;5.70;97.20;;;;;;4982475;28;20061;-59
2022/01/19 00:23:32;;;;;;;34.15;18.30;;;5.60;97.40;;;;;;4981715;28;20104;-60
2022/01/19 00:25:59;;;;;;;33.97;17.10;;;5.60;97.30;;;;;;4980830;28;20054;-59
2022/01/19 00:28:26;;;;;;;38.42;19.65;;;5.60;97.40;;;;;;4980558;28;20050;-59
2022/01/19 00:30:54;;;;;;;34.90;17.30;;;5.50;97.40;;;;;;4981483;28;20121;-59
2022/01/19 00:33:21;;;;;;;37.05;18.58;;;5.50;97.40;;;;;;4981903;28;20050;-59
2022/01/19 00:35:48;;;;;;;33.95;17.13;;;5.50;97.30;;;;;;4980947;28;20054;-59
2022/01/19 00:38:16;;;;;;;33.72;17.55;;;5.50;97.50;;;;;;4981004;28;20097;-59
2022/01/19 00:40:43;;;;;;;36.13;17.98;;;5.50;97.50;;;;;;4979893;28;20054;-59
2022/01/19 00:43:10;;;;;;;38.28;18.35;;;5.60;97.40;;;;;;4981227;28;20050;-59
2022/01/19 00:45:37;;;;;;;34.13;18.60;;;5.60;97.50;;;;;;4980294;28;20050;-59
2022/01/19 00:48:05;;;;;;;41.47;20.02;;;5.50;97.40;;;;;;4980226;28;20065;-59
2022/01/19 00:50:32;;;;;;;41.95;19.38;;;5.50;97.50;;;;;;4980647;28;20055;-59
2022/01/19 00:52:59;;;;;;;37.90;19.67;;;5.50;97.60;;;;;;4980386;28;20449;-59
2022/01/19 00:55:28;;;;;;;41.55;18.92;;;5.50;97.70;;;;;;4980961;28;20230;-59
2022/01/19 00:57:55;;;;;;;39.75;19.25;;;5.50;97.70;;;;;;4980880;28;20054;-59
2022/01/19 01:00:25;;;;;;;41.60;19.13;;;5.40;97.70;;;;;;4978619;28;20050;-60
2022/01/19 01:02:52;;;;;;;36.63;19.42;;;5.40;97.60;;;;;;4979777;28;20700;-59
2022/01/19 01:05:21;;;;;;;37.90;19.60;;;5.50;97.60;;;;;;4981001;28;20072;-59
2022/01/19 01:07:48;;;;;;;44.75;20.63;;;5.40;97.50;;;;;;4982713;28;20950;-59
2022/01/19 01:10:17;;;;;;;40.15;21.40;;;5.50;97.60;;;;;;4982999;28;20054;-59
2022/01/19 01:12:47;;;;;;;45.47;22.08;;;5.50;97.70;;;;;;4984273;28;20062;-59
2022/01/19 01:15:46;;;;;;;43.35;21.15;;;5.50;97.70;;;;;;4983408;28;20193;-60
2022/01/19 01:18:20;;;;;;;43.58;21.33;;;5.40;97.80;;;;;;4983557;28;21196;-59
2022/01/19 01:20:50;;;;;;;46.08;20.77;;;5.40;97.90;;;;;;4983544;28;20050;-60
2022/01/19 01:23:19;;;;;;;39.83;20.00;;;5.40;98.00;;;;;;4982596;28;20054;-60
2022/01/19 01:25:46;;;;;;;44.13;20.73;;;5.40;98.10;;;;;;4984058;28;20051;-60
2022/01/19 01:28:14;;;;;;;41.42;20.42;;;5.40;98.00;;;;;;4983973;28;20153;-60
2022/01/19 01:30:42;;;;;;;45.95;21.08;;;5.30;97.90;;;;;;4983052;28;20058;-60
2022/01/19 01:33:09;;;;;;;48.33;21.95;;;5.30;98.10;;;;;;4983783;28;20109;-60
2022/01/19 01:35:36;;;;;;;46.45;22.98;;;5.30;98.10;;;;;;4983590;28;20051;-59
2022/01/19 01:38:05;;;;;;;43.10;21.42;;;5.30;98.20;;;;;;4982570;28;20047;-60
2022/01/19 01:40:33;;;;;;;47.67;21.42;;;5.30;98.10;;;;;;4982889;28;20065;-60
2022/01/19 01:43:02;;;;;;;53.17;24.42;;;5.30;98.10;;;;;;4983820;28;20508;-59
2022/01/19 01:45:32;;;;;;;57.20;23.42;;;5.30;98.20;;;;;;4981893;28;20493;-59
2022/01/19 01:48:07;;;;;;;47.42;23.42;;;5.30;98.20;;;;;;4983070;28;20149;-59
2022/01/19 01:53:28;;;;;;;56.35;23.42;;;5.30;98.40;;;;;;4984021;28;20177;-59
2022/01/19 01:55:57;;;;;;;50.53;21.67;;;5.30;98.40;;;;;;4983063;28;20070;-59
2022/01/19 01:58:24;;;;;;;49.75;22.40;;;5.30;98.50;;;;;;4984075;28;20054;-59
2022/01/19 02:00:52;;;;;;;46.05;21.77;;;5.30;98.50;;;;;;4983903;28;20536;-60
2022/01/19 02:03:19;;;;;;;48.33;22.02;;;5.30;98.50;;;;;;4983896;28;20538;-59
2022/01/19 02:08:38;;;;;;;50.97;22.35;;;5.30;98.50;;;;;;4942078;28;21723;-60
2022/01/19 02:11:07;;;;;;;52.17;22.13;;;5.30;98.50;;;;;;4981782;28;20096;-59
2022/01/19 02:16:26;;;;;;;53.30;22.63;;;5.30;98.70;;;;;;4982650;28;20054;-59
2022/01/19 02:21:58;;;;;;;58.20;23.00;;;5.30;98.70;;;;;;4946843;28;20145;-59
2022/01/19 02:24:29;;;;;;;57.60;23.70;;;5.30;98.90;;;;;;4983252;28;20617;-59
2022/01/19 02:27:04;;;;;;;46.72;21.55;;;5.30;98.90;;;;;;4982720;28;20058;-59
2022/01/19 02:40:33;;;;;;;49.72;23.65;;;5.30;99.20;;;;;;4983972;28;20133;-59
2022/01/19 02:43:07;;;;;;;55.10;25.92;;;5.40;99.20;;;;;;4981537;28;20062;-59
2022/01/19 02:51:07;;;;;;;61.35;26.15;;;5.30;99.50;;;;;;4983959;28;20050;-59
2022/01/19 02:53:36;;;;;;;62.95;27.75;;;5.30;99.50;;;;;;4983080;28;20065;-59
2022/01/19 02:56:08;;;;;;;62.50;26.33;;;5.30;99.60;;;;;;4982951;28;20058;-59
2022/01/19 02:58:40;;;;;;;57.28;26.67;;;5.40;99.60;;;;;;4982205;28;20707;-59
2022/01/19 03:09:21;;;;;;;69.90;26.48;;;5.30;99.50;;;;;;4982505;28;20050;-59
2022/01/19 03:11:48;;;;;;;68.75;28.80;;;5.40;99.70;;;;;;4982232;28;20054;-59
2022/01/19 03:14:15;;;;;;;64.20;29.08;;;5.40;99.70;;;;;;4981636;28;20054;-59
2022/01/19 03:16:42;;;;;;;64.47;26.02;;;5.40;99.70;;;;;;4982248;28;20061;-59
2022/01/19 03:19:10;;;;;;;54.85;26.08;;;5.40;99.60;;;;;;4982189;28;20050;-60
2022/01/19 03:21:37;;;;;;;68.35;27.58;;;5.30;99.60;;;;;;4982316;28;20054;-59
2022/01/19 03:24:05;;;;;;;63.78;26.13;;;5.30;99.60;;;;;;4982575;28;20124;-59
2022/01/19 03:26:33;;;;;;;76.18;28.98;;;5.30;99.60;;;;;;4982493;28;20113;-59
2022/01/19 03:29:00;;;;;;;68.07;26.25;;;5.30;99.60;;;;;;4980210;28;20054;-60
2022/01/19 03:31:27;;;;;;;63.10;26.60;;;5.30;99.70;;;;;;4981325;28;20050;-59
2022/01/19 03:33:54;;;;;;;75.05;30.00;;;5.30;99.80;;;;;;4980453;28;20056;-59
2022/01/19 03:36:21;;;;;;;74.63;29.08;;;5.30;99.90;;;;;;4981369;28;20050;-60
2022/01/19 03:38:48;;;;;;;82.97;30.55;;;5.30;99.90;;;;;;4982004;28;20370;-59
2022/01/19 03:41:15;;;;;;;71.50;29.17;;;5.30;99.90;;;;;;4980286;28;20465;-59
2022/01/19 03:43:43;;;;;;;68.68;26.15;;;5.30;99.90;;;;;;4982479;28;20065;-60
2022/01/19 03:46:14;;;;;;;64.80;24.52;;;5.30;99.80;;;;;;4980785;28;20057;-59
2022/01/19 03:48:46;;;;;;;62.08;24.48;;;5.30;99.80;;;;;;4979961;28;20062;-59
2022/01/19 03:51:13;;;;;;;62.05;24.58;;;5.30;99.70;;;;;;4981577;28;20858;-59
2022/01/19 03:53:40;;;;;;;67.63;24.17;;;5.30;99.70;;;;;;4981645;28;20050;-59
2022/01/19 03:56:07;;;;;;;60.40;22.08;;;5.20;99.80;;;;;;4981214;28;20062;-59
2022/01/19 03:58:36;;;;;;;48.97;21.15;;;5.20;99.80;;;;;;4982054;28;20050;-59
2022/01/19 04:01:05;;;;;;;49.40;21.77;;;5.20;99.80;;;;;;4982061;28;20085;-59
2022/01/19 04:03:49;;;;;;;49.03;20.85;;;5.20;99.70;;;;;;4980172;28;20200;-60
2022/01/19 04:06:20;;;;;;;49.08;20.05;;;5.10;99.60;;;;;;4980585;28;20054;-60
2022/01/19 04:08:47;;;;;;;55.67;22.65;;;5.10;99.60;;;;;;4981415;28;20134;-60
2022/01/19 04:11:17;;;;;;;55.30;21.88;;;5.00;99.70;;;;;;4981671;28;20061;-60
2022/01/19 04:14:21;;;;;;;62.22;21.55;;;5.00;99.80;;;;;;4980839;28;20054;-60
2022/01/19 04:16:43;;;;;;;49.67;21.23;;;5.10;99.80;;;;;;4981096;28;20094;-60
2022/01/19 04:19:22;;;;;;;65.50;22.60;;;5.10;99.80;;;;;;4981414;28;20054;-60
2022/01/19 04:21:49;;;;;;;56.08;21.27;;;5.10;99.70;;;;;;4981933;28;20058;-60
2022/01/19 04:24:16;;;;;;;59.03;23.40;;;5.20;99.70;;;;;;4980540;28;20057;-60
2022/01/19 04:26:43;;;;;;;59.88;23.02;;;5.20;99.90;;;;;;4979073;28;20908;-60
2022/01/19 04:29:10;;;;;;;57.63;23.55;;;5.20;99.70;;;;;;4981288;28;20051;-60
2022/01/19 04:31:37;;;;;;;62.65;22.75;;;5.20;99.70;;;;;;4981356;28;20165;-60
2022/01/19 04:34:06;;;;;;;55.25;21.50;;;5.20;99.70;;;;;;4981930;28;22113;-60
2022/01/19 04:36:47;;;;;;;55.67;21.08;;;5.20;99.60;;;;;;4981513;28;20101;-60
2022/01/19 04:39:26;;;;;;;50.22;21.88;;;5.30;99.60;;;;;;4980877;28;20059;-60
2022/01/19 04:44:57;;;;;;;42.58;19.30;;;5.30;99.40;;;;;;4984028;28;20141;-60
2022/01/19 04:48:06;;;;;;;46.28;18.80;;;5.40;99.30;;;;;;4984304;28;20054;-60
2022/01/19 05:01:42;;;;;;;49.65;21.67;;;5.30;98.90;;;;;;4983809;28;20043;-60
2022/01/19 05:04:21;;;;;;;48.47;20.42;;;5.40;99.00;;;;;;4983635;28;20054;-60
2022/01/19 05:07:02;;;;;;;44.58;19.98;;;5.40;99.00;;;;;;4984312;28;20062;-60
2022/01/19 05:09:53;;;;;;;39.05;19.77;;;5.40;98.90;;;;;;4983596;28;21024;-60
2022/01/19 05:15:01;;;;;;;46.22;20.63;;;5.30;98.80;;;;;;4985254;28;20050;-60
2022/01/19 05:17:28;;;;;;;44.40;20.52;;;5.40;98.90;;;;;;4983834;28;20058;-60
2022/01/19 05:19:55;;;;;;;41.55;20.15;;;5.30;98.90;;;;;;4984143;28;20066;-60
2022/01/19 05:22:23;;;;;;;44.70;20.55;;;5.40;98.80;;;;;;4984381;28;20050;-60
2022/01/19 05:24:51;;;;;;;42.50;21.27;;;5.40;98.80;;;;;;4984551;28;20433;-60
2022/01/19 05:27:21;;;;;;;43.83;21.17;;;5.40;98.80;;;;;;4982888;28;20050;-60
2022/01/19 05:29:48;;;;;;;44.88;21.17;;;5.40;98.80;;;;;;4984249;28;20121;-60
2022/01/19 05:32:15;;;;;;;40.33;18.05;;;5.40;98.80;;;;;;4984366;28;20052;-60
2022/01/19 05:34:43;;;;;;;40.63;20.23;;;5.50;98.80;;;;;;4984106;28;20062;-60
2022/01/19 05:37:10;;;;;;;42.45;19.98;;;5.50;98.80;;;;;;4984343;28;20051;-60
2022/01/19 05:39:38;;;;;;;39.35;17.90;;;5.60;98.70;;;;;;4983697;28;20121;-60
2022/01/19 05:42:06;;;;;;;36.60;17.75;;;5.50;98.60;;;;;;4982727;28;20061;-60
2022/01/19 05:44:32;;;;;;;42.05;19.55;;;5.60;98.60;;;;;;4983040;28;20076;-60
2022/01/19 05:46:59;;;;;;;44.70;20.40;;;5.60;98.60;;;;;;4983164;28;20070;-60
2022/01/19 05:49:26;;;;;;;44.28;18.90;;;5.60;98.50;;;;;;4982232;28;20054;-60
2022/01/19 05:51:53;;;;;;;46.03;18.85;;;5.60;98.40;;;;;;4983500;28;20050;-60
2022/01/19 05:54:20;;;;;;;41.47;18.92;;;5.60;98.40;;;;;;4983460;28;20050;-60
2022/01/19 05:56:48;;;;;;;37.15;19.02;;;5.50;98.30;;;;;;4983476;28;20061;-60
2022/01/19 05:59:15;;;;;;;39.10;19.30;;;5.50;98.30;;;;;;4982639;28;20169;-60
2022/01/19 06:01:42;;;;;;;39.78;19.00;;;5.50;98.30;;;;;;4981089;28;20076;-59
2022/01/19 06:04:09;;;;;;;41.45;19.10;;;5.50;98.30;;;;;;4982174;28;20809;-59
2022/01/19 06:06:36;;;;;;;39.15;19.73;;;5.50;98.30;;;;;;4982838;28;20429;-59
2022/01/19 06:09:10;;;;;;;46.13;20.70;;;5.50;98.20;;;;;;4981213;28;20046;-59
2022/01/19 06:11:36;;;;;;;44.83;21.60;;;5.50;98.20;;;;;;4981576;28;20054;-59
2022/01/19 06:14:05;;;;;;;42.88;21.23;;;5.40;98.20;;;;;;4981806;28;22346;-59
2022/01/19 06:16:31;;;;;;;41.42;19.88;;;5.40;98.20;;;;;;4982673;28;20051;-59
2022/01/19 06:18:58;;;;;;;40.67;21.38;;;5.40;98.20;;;;;;4983074;28;20056;-59
2022/01/19 06:21:25;;;;;;;40.35;20.77;;;5.40;98.30;;;;;;4980552;28;20054;-60
2022/01/19 06:23:52;;;;;;;42.72;20.80;;;5.30;98.30;;;;;;4983507;28;20057;-59
2022/01/19 06:26:19;;;;;;;40.92;21.45;;;5.30;98.30;;;;;;4982638;28;20058;-59
2022/01/19 06:28:45;;;;;;;49.10;21.45;;;5.30;98.40;;;;;;4982002;28;20050;-59
2022/01/19 06:31:14;;;;;;;43.08;21.55;;;5.30;98.50;;;;;;4982619;28;20056;-59
2022/01/19 06:33:41;;;;;;;44.92;21.52;;;5.30;98.50;;;;;;4982503;28;20050;-59
2022/01/19 06:36:08;;;;;;;44.00;22.33;;;5.20;98.50;;;;;;4982683;28;20062;-59
2022/01/19 06:38:34;;;;;;;39.70;20.95;;;5.20;98.50;;;;;;4982241;28;20046;-61
2022/01/19 06:41:01;;;;;;;39.42;21.27;;;5.20;98.60;;;;;;4984160;28;20141;-58
2022/01/19 06:43:28;;;;;;;41.67;22.27;;;5.20;98.60;;;;;;4984515;28;20140;-58
2022/01/19 06:45:56;;;;;;;37.95;20.30;;;5.30;98.60;;;;;;4983783;28;20695;-59
2022/01/19 06:48:24;;;;;;;44.22;22.15;;;5.20;98.60;;;;;;4984122;28;20054;-58
2022/01/19 06:50:51;;;;;;;44.38;22.20;;;5.20;98.60;;;;;;4984166;28;20559;-58
2022/01/19 06:53:19;;;;;;;40.10;20.80;;;5.20;98.60;;;;;;4983939;28;20054;-59
2022/01/19 06:55:45;;;;;;;43.20;23.63;;;5.20;98.60;;;;;;4984315;28;20054;-58
2022/01/19 06:58:12;;;;;;;40.97;21.88;;;5.20;98.60;;;;;;4983677;28;20062;-58
2022/01/19 07:00:39;;;;;;;39.72;21.60;;;5.20;98.60;;;;;;4983963;28;20050;-58
2022/01/19 07:03:07;;;;;;;38.88;22.23;;;5.30;98.60;;;;;;4983483;28;20061;-58
2022/01/19 07:05:35;;;;;;;37.83;21.00;;;5.30;98.60;;;;;;4983193;28;22247;-59
2022/01/19 07:08:02;;;;;;;40.35;21.75;;;5.30;98.50;;;;;;4983973;28;20065;-59
2022/01/19 07:10:31;;;;;;;37.50;21.15;;;5.30;98.40;;;;;;4984888;28;21120;-59
2022/01/19 07:12:58;;;;;;;40.65;20.67;;;5.30;98.40;;;;;;4983594;28;20054;-59
2022/01/19 07:15:25;;;;;;;40.80;22.05;;;5.30;98.30;;;;;;4983060;28;20064;-59
2022/01/19 07:17:52;;;;;;;46.22;22.75;;;5.30;98.30;;;;;;4982056;28;20135;-58
2022/01/19 07:20:19;;;;;;;38.00;22.00;;;5.30;98.20;;;;;;4982536;28;20417;-59
2022/01/19 07:22:48;;;;;;;50.55;22.08;;;5.30;98.20;;;;;;4982498;28;20050;-58
2022/01/19 07:25:15;;;;;;;39.15;21.75;;;5.30;98.20;;;;;;4983389;28;20988;-58
2022/01/19 07:27:43;;;;;;;46.05;21.65;;;5.30;98.10;;;;;;4982964;28;20089;-58
2022/01/19 07:30:11;;;;;;;41.80;21.77;;;5.30;98.10;;;;;;4982476;28;21963;-59
2022/01/19 07:32:38;;;;;;;38.92;21.60;;;5.30;98.10;;;;;;4983210;28;20058;-59
2022/01/19 07:35:07;;;;;;;46.72;22.40;;;5.40;98.10;;;;;;4978690;28;21711;-59
2022/01/19 07:37:34;;;;;;;41.67;21.02;;;5.40;98.10;;;;;;4982938;28;21241;-58
2022/01/19 07:40:02;;;;;;;45.78;22.05;;;5.40;98.00;;;;;;4983336;28;20050;-59
2022/01/19 07:42:29;;;;;;;39.75;21.55;;;5.40;97.90;;;;;;4983727;28;20905;-59
2022/01/19 07:44:56;;;;;;;37.22;21.60;;;5.40;97.90;;;;;;4982749;28;20058;-59
2022/01/19 07:47:23;;;;;;;41.38;22.27;;;5.40;97.90;;;;;;4982595;28;20058;-59
2022/01/19 07:49:50;;;;;;;46.00;23.02;;;5.30;97.90;;;;;;4982674;28;20061;-59
2022/01/19 07:52:17;;;;;;;43.13;23.58;;;5.30;97.90;;;;;;4982089;28;20057;-59
2022/01/19 07:54:44;;;;;;;43.60;23.58;;;5.30;98.00;;;;;;4982245;28;20046;-59
2022/01/19 07:57:12;;;;;;;40.92;23.55;;;5.30;98.00;;;;;;4982243;28;20822;-59
2022/01/19 07:59:39;;;;;;;45.70;22.20;;;5.30;98.00;;;;;;4982458;28;20144;-59
2022/01/19 08:02:06;;;;;;;41.50;23.40;;;5.20;98.00;;;;;;4981469;28;20054;-59
2022/01/19 08:04:32;;;;;;;42.33;22.83;;;5.20;98.00;;;;;;4981896;28;20057;-59
2022/01/19 08:06:59;;;;;;;43.85;22.63;;;5.00;98.10;;;;;;4981499;28;20050;-59
2022/01/19 08:09:26;;;;;;;48.38;22.63;;;5.10;98.20;;;;;;4981789;28;20145;-59
2022/01/19 08:11:53;;;;;;;46.50;23.33;;;5.10;98.30;;;;;;4981792;28;20061;-59
2022/01/19 08:14:24;;;;;;;54.17;25.38;;;5.10;98.40;;;;;;4982102;28;20060;-59
2022/01/19 08:16:51;;;;;;;45.08;22.52;;;5.10;98.50;;;;;;4982318;28;20073;-59
2022/01/19 08:19:18;;;;;;;41.25;22.70;;;5.10;98.40;;;;;;4981651;28;20061;-59
2022/01/19 08:21:45;;;;;;;44.95;24.27;;;5.20;98.40;;;;;;4981931;28;20184;-59
2022/01/19 08:24:12;;;;;;;40.35;23.25;;;5.20;98.40;;;;;;4981670;28;20061;-58
2022/01/19 08:26:39;;;;;;;41.95;22.58;;;5.20;98.30;;;;;;4981412;28;20053;-59
2022/01/19 08:29:06;;;;;;;45.25;23.60;;;5.30;98.30;;;;;;4981398;28;20433;-58
2022/01/19 08:31:34;;;;;;;44.30;24.55;;;5.30;98.30;;;;;;4981742;28;20555;-59
2022/01/19 08:34:01;;;;;;;47.17;23.45;;;5.30;98.20;;;;;;4981385;28;20966;-59
2022/01/19 08:36:28;;;;;;;43.95;22.92;;;5.30;98.20;;;;;;4982220;28;20062;-59
2022/01/19 08:38:56;;;;;;;49.25;24.23;;;5.30;98.20;;;;;;4981786;28;20918;-59
2022/01/19 08:41:23;;;;;;;47.85;25.35;;;5.40;98.20;;;;;;4981506;28;20877;-59
2022/01/19 08:43:50;;;;;;;45.85;24.73;;;5.30;98.20;;;;;;4980072;28;20060;-58
2022/01/19 08:46:17;;;;;;;49.20;27.08;;;5.40;98.20;;;;;;4981726;28;20046;-59
2022/01/19 08:48:46;;;;;;;46.63;24.95;;;5.40;98.20;;;;;;4981275;28;20054;-59
2022/01/19 08:51:13;;;;;;;49.58;26.45;;;5.50;98.20;;;;;;4982133;28;20050;-59
2022/01/19 08:53:41;;;;;;;52.55;26.67;;;5.50;98.20;;;;;;4981955;28;20058;-58
2022/01/19 08:56:08;;;;;;;47.90;25.83;;;5.60;98.00;;;;;;4980506;28;20062;-59
2022/01/19 08:58:35;;;;;;;49.28;25.80;;;5.60;98.00;;;;;;4979817;28;20055;-59
2022/01/19 09:01:02;;;;;;;50.20;26.65;;;5.60;97.90;;;;;;4978852;28;20057;-59
2022/01/19 09:03:29;;;;;;;50.45;25.48;;;5.60;97.80;;;;;;4980859;28;20058;-59
2022/01/19 09:05:57;;;;;;;47.58;25.80;;;5.70;97.80;;;;;;4978201;28;20057;-59
2022/01/19 09:08:24;;;;;;;48.67;25.65;;;5.70;97.70;;;;;;4980924;28;20056;-59
2022/01/19 09:10:53;;;;;;;50.90;26.40;;;5.70;97.60;;;;;;4980892;28;20061;-59
2022/01/19 09:13:20;;;;;;;55.00;27.63;;;5.70;97.60;;;;;;4976907;28;20050;-59
2022/01/19 09:15:47;;;;;;;48.33;25.35;;;5.70;97.50;;;;;;4978908;28;20050;-59
2022/01/19 09:18:14;;;;;;;44.83;25.15;;;5.70;97.50;;;;;;4977187;28;20935;-59
2022/01/19 09:20:40;;;;;;;46.35;25.48;;;5.70;97.50;;;;;;4979538;28;20054;-59
2022/01/19 09:23:09;;;;;;;49.75;26.45;;;5.70;97.40;;;;;;4978441;28;20054;-59
2022/01/19 09:25:36;;;;;;;46.55;25.50;;;5.70;97.40;;;;;;4979845;28;20058;-59
2022/01/19 09:28:03;;;;;;;50.28;27.20;;;5.80;97.40;;;;;;4983205;28;21088;-59
2022/01/19 09:30:30;;;;;;;48.30;26.60;;;5.80;97.30;;;;;;4982220;28;20049;-59
2022/01/19 09:33:06;;;;;;;49.65;26.67;;;5.80;97.30;;;;;;4982254;28;20054;-59
2022/01/19 09:35:50;;;;;;;51.13;26.65;;;5.80;97.30;;;;;;4983076;28;20505;-59
2022/01/19 09:38:18;;;;;;;54.33;26.27;;;5.80;97.20;;;;;;4983062;28;20081;-59
2022/01/19 09:40:45;;;;;;;50.17;26.60;;;5.80;97.30;;;;;;4983582;28;20058;-59
2022/01/19 09:43:13;;;;;;;52.05;26.63;;;5.80;97.20;;;;;;4982525;28;20050;-59
2022/01/19 09:45:39;;;;;;;49.47;24.83;;;5.80;97.20;;;;;;4980682;28;20060;-58
2022/01/19 09:48:08;;;;;;;58.97;28.63;;;5.80;97.30;;;;;;4981384;28;20055;-59
2022/01/19 09:50:36;;;;;;;52.00;26.05;;;5.80;97.30;;;;;;4982777;28;20882;-58
2022/01/19 09:53:05;;;;;;;48.00;26.15;;;5.80;97.20;;;;;;4980828;28;20065;-58
2022/01/19 09:55:34;;;;;;;49.53;26.45;;;5.80;97.20;;;;;;4981631;28;20054;-58
2022/01/19 09:58:01;;;;;;;56.08;27.63;;;5.80;97.00;;;;;;4981152;28;20158;-59
2022/01/19 10:00:28;;;;;;;48.85;25.85;;;5.90;97.10;;;;;;4981232;28;20055;-58
2022/01/19 10:03:13;;;;;;;53.22;29.08;;;5.90;97.00;;;;;;4984414;28;20165;-58
2022/01/19 10:06:05;;;;;;;53.83;27.05;;;5.90;96.90;;;;;;4982085;28;20811;-58
2022/01/19 10:08:35;;;;;;;51.22;27.17;;;5.90;96.90;;;;;;4983224;28;20536;-58
2022/01/19 10:11:20;;;;;;;46.33;26.40;;;5.90;96.90;;;;;;4982825;28;20050;-59
2022/01/19 10:17:00;;;;;;;49.15;26.60;;;5.90;96.90;;;;;;4981933;28;20490;-58
2022/01/19 10:19:29;;;;;;;55.17;28.08;;;5.90;96.80;;;;;;4979270;28;20137;-59
2022/01/19 10:22:01;;;;;;;53.97;28.13;;;5.90;96.80;;;;;;4982503;28;20912;-59
2022/01/19 10:24:40;;;;;;;60.38;29.55;;;5.90;96.90;;;;;;4982748;28;20054;-59
2022/01/19 10:27:26;;;;;;;54.90;27.90;;;5.90;96.90;;;;;;4983195;28;20047;-59
2022/01/19 10:29:55;;;;;;;54.42;29.63;;;5.90;96.90;;;;;;4981223;28;20065;-58
2022/01/19 10:32:23;;;;;;;49.53;28.67;;;5.90;96.90;;;;;;4981724;28;20112;-58
2022/01/19 10:34:51;;;;;;;56.60;29.80;;;5.90;97.00;;;;;;4982692;28;20064;-59
2022/01/19 10:37:26;;;;;;;51.35;27.58;;;5.90;97.00;;;;;;4981388;28;20053;-59
2022/01/19 10:39:57;;;;;;;58.15;29.13;;;5.90;97.00;;;;;;4983357;28;20591;-59
2022/01/19 10:42:29;;;;;;;59.38;29.90;;;5.90;97.00;;;;;;4983601;28;22238;-59
2022/01/19 10:44:58;;;;;;;56.70;30.42;;;5.90;97.10;;;;;;4981886;28;20125;-59
2022/01/19 10:47:44;;;;;;;52.63;29.85;;;5.90;97.30;;;;;;4982313;28;20050;-58
2022/01/19 10:50:12;;;;;;;56.10;28.98;;;5.90;97.10;;;;;;4981177;28;20068;-59
2022/01/19 10:52:41;;;;;;;53.20;28.92;;;6.00;97.10;;;;;;4981888;28;20232;-59
2022/01/19 10:55:10;;;;;;;50.22;28.65;;;6.00;97.10;;;;;;4981361;28;20054;-59
2022/01/19 10:57:41;;;;;;;62.13;31.42;;;6.00;97.10;;;;;;4979827;28;20061;-59
2022/01/19 11:00:17;;;;;;;50.05;29.17;;;6.00;96.90;;;;;;4977765;28;20185;-59
2022/01/19 11:02:45;;;;;;;49.70;29.10;;;6.00;97.00;;;;;;4977450;28;20510;-59
2022/01/19 11:05:12;;;;;;;57.20;28.90;;;6.10;97.00;;;;;;4978688;28;20058;-59
2022/01/19 11:07:42;;;;;;;52.60;29.15;;;6.10;97.00;;;;;;4981467;28;20050;-59
2022/01/19 11:10:13;;;;;;;50.63;27.52;;;6.10;96.90;;;;;;4980981;28;20142;-59
2022/01/19 11:12:45;;;;;;;50.35;28.92;;;6.10;96.90;;;;;;4981650;28;20054;-59
2022/01/19 11:15:14;;;;;;;46.13;27.25;;;6.20;96.90;;;;;;4979742;28;20923;-58
2022/01/19 11:17:41;;;;;;;50.38;28.45;;;6.20;96.90;;;;;;4981396;28;20058;-59
2022/01/19 11:20:11;;;;;;;51.30;27.65;;;6.20;96.80;;;;;;4980787;28;20050;-58
2022/01/19 11:22:50;;;;;;;59.85;28.17;;;6.20;96.70;;;;;;4981468;28;20524;-58
2022/01/19 11:25:25;;;;;;;51.13;28.48;;;6.30;96.70;;;;;;4981388;28;20141;-59
2022/01/19 11:27:54;;;;;;;61.92;29.10;;;6.30;96.70;;;;;;4981252;28;20058;-59
2022/01/19 11:30:25;;;;;;;57.72;30.25;;;6.30;96.70;;;;;;4980174;28;20054;-59
2022/01/19 11:33:12;;;;;;;49.50;29.13;;;6.30;96.90;;;;;;4981850;28;21001;-59
2022/01/19 11:35:41;;;;;;;51.38;29.33;;;6.40;96.90;;;;;;4981329;28;20050;-60
2022/01/19 11:38:27;;;;;;;50.25;29.35;;;6.50;96.80;;;;;;4981047;28;20061;-60
2022/01/19 11:40:54;;;;;;;45.97;29.40;;;6.50;96.60;;;;;;4980442;28;20058;-59
2022/01/19 11:43:25;;;;;;;54.72;29.50;;;6.60;96.70;;;;;;4981113;28;20054;-59
2022/01/19 11:45:53;;;;;;;50.97;29.33;;;6.60;96.40;;;;;;4980411;28;20060;-59
2022/01/19 11:48:22;;;;;;;51.67;29.90;;;6.70;96.50;;;;;;4980236;28;20062;-59
2022/01/19 11:50:51;;;;;;;51.45;29.38;;;6.60;96.40;;;;;;4981199;28;20054;-58
2022/01/19 11:53:18;;;;;;;52.72;30.35;;;6.80;96.30;;;;;;4978776;28;20057;-59
2022/01/19 11:56:01;;;;;;;60.72;29.30;;;6.80;96.10;;;;;;4977365;28;23371;-58
2022/01/19 11:58:30;;;;;;;49.00;29.60;;;6.90;96.20;;;;;;4979341;28;22328;-59
2022/01/19 12:00:58;;;;;;;57.10;30.38;;;6.90;96.20;;;;;;4978704;28;20246;-59
2022/01/19 12:03:27;;;;;;;54.83;29.52;;;6.90;96.10;;;;;;4978782;28;20221;-59
2022/01/19 12:05:56;;;;;;;52.67;28.58;;;6.90;95.90;;;;;;4979258;28;20054;-59
2022/01/19 12:08:30;;;;;;;50.22;29.38;;;6.90;96.00;;;;;;4979089;28;20050;-59
2022/01/19 12:11:01;;;;;;;50.33;29.15;;;6.90;96.00;;;;;;4979928;28;20050;-58
2022/01/19 12:13:44;;;;;;;49.88;27.77;;;6.90;95.90;;;;;;4978644;28;20058;-58
2022/01/19 12:16:24;;;;;;;54.50;29.15;;;6.80;95.90;;;;;;4979983;28;20050;-59
2022/01/19 12:18:53;;;;;;;53.78;27.92;;;6.80;95.90;;;;;;4979539;28;20794;-59
2022/01/19 12:21:39;;;;;;;48.75;27.17;;;6.70;95.90;;;;;;4979822;28;20050;-59
2022/01/19 12:24:26;;;;;;;56.42;29.05;;;6.70;96.10;;;;;;4979123;28;21715;-59
2022/01/19 12:27:10;;;;;;;47.22;26.17;;;6.70;96.20;;;;;;4978641;28;20070;-59
2022/01/19 12:29:53;;;;;;;51.70;29.17;;;6.80;96.20;;;;;;4974464;28;20062;-59
2022/01/19 12:32:47;;;;;;;46.00;25.83;;;6.80;96.10;;;;;;4978617;28;20145;-59
2022/01/19 12:35:20;;;;;;;49.88;25.58;;;6.80;96.10;;;;;;4979157;28;20113;-59
2022/01/19 12:37:49;;;;;;;49.42;27.48;;;6.80;96.00;;;;;;4980172;28;20057;-59
2022/01/19 12:40:35;;;;;;;46.38;27.42;;;6.80;96.10;;;;;;4978008;28;20057;-59
2022/01/19 12:43:05;;;;;;;50.40;26.70;;;6.80;96.10;;;;;;4979533;28;20277;-58
2022/01/19 12:45:44;;;;;;;56.13;29.52;;;6.80;96.10;;;;;;4979351;28;20046;-58
2022/01/19 12:48:12;;;;;;;48.28;26.20;;;6.80;96.00;;;;;;4977495;28;20058;-59
2022/01/19 12:50:42;;;;;;;50.15;26.58;;;6.70;96.10;;;;;;4979314;28;20054;-59
2022/01/19 12:53:22;;;;;;;50.88;27.55;;;6.80;96.30;;;;;;4978575;28;21316;-58
2022/01/19 12:55:51;;;;;;;49.08;26.67;;;6.80;96.20;;;;;;4979226;28;20051;-58
2022/01/19 12:58:23;;;;;;;55.60;27.45;;;6.80;96.20;;;;;;4978103;28;21444;-59
2022/01/19 13:00:55;;;;;;;49.05;26.45;;;6.80;96.10;;;;;;4980106;28;20050;-59
2022/01/19 13:03:25;;;;;;;49.33;26.10;;;6.80;96.00;;;;;;4981923;28;20758;-59
2022/01/19 13:05:56;;;;;;;47.92;25.45;;;6.80;95.90;;;;;;4982055;28;20064;-58
2022/01/19 13:08:27;;;;;;;44.13;24.88;;;6.80;96.10;;;;;;4982372;28;20457;-59
2022/01/19 13:11:01;;;;;;;45.85;25.13;;;6.90;96.10;;;;;;4982640;28;20050;-59
2022/01/19 13:13:29;;;;;;;52.75;25.80;;;6.90;95.90;;;;;;4983262;28;20217;-59
2022/01/19 13:15:58;;;;;;;45.00;24.80;;;6.90;95.90;;;;;;4981259;28;21142;-59
2022/01/19 13:18:35;;;;;;;43.83;25.08;;;6.90;95.90;;;;;;4982236;28;20061;-59
2022/01/19 13:21:05;;;;;;;54.13;26.88;;;6.80;95.90;;;;;;4983035;28;20324;-59
2022/01/19 13:23:34;;;;;;;40.22;22.98;;;6.80;96.00;;;;;;4982429;28;20906;-59
2022/01/19 13:26:04;;;;;;;44.85;26.60;;;6.80;96.00;;;;;;4983345;28;20057;-59
2022/01/19 13:28:34;;;;;;;48.58;25.67;;;6.80;96.00;;;;;;4982363;28;20513;-59
2022/01/19 13:31:13;;;;;;;46.42;25.27;;;6.80;96.10;;;;;;4983488;28;20060;-59
2022/01/19 13:33:41;;;;;;;46.40;24.30;;;6.70;96.20;;;;;;4983313;28;20533;-59
2022/01/19 13:36:09;;;;;;;52.60;27.08;;;6.70;96.20;;;;;;4984007;28;21250;-59
2022/01/19 13:38:37;;;;;;;45.03;25.15;;;6.80;96.30;;;;;;4983386;28;20532;-59
2022/01/19 13:41:08;;;;;;;47.60;24.60;;;6.80;96.20;;;;;;4983839;28;20194;-59
2022/01/19 13:43:39;;;;;;;47.78;22.98;;;6.90;96.20;;;;;;4983414;28;20879;-59
2022/01/19 13:46:15;;;;;;;43.70;21.63;;;6.80;96.20;;;;;;4982848;28;22781;-59